createdAt,value
2018-11-02T00:00:57.445Z,11.29
2018-11-02T00:03:24.887Z,11.31
2018-11-02T00:05:52.350Z,11.36
2018-11-02T00:08:19.710Z,11.36
2018-11-02T00:10:47.262Z,11.39
2018-11-02T00:13:15.798Z,11.37
2018-11-02T00:15:43.149Z,11.35
2018-11-02T00:18:10.454Z,11.35
2018-11-02T00:20:37.709Z,10.94
2018-11-02T00:23:05.117Z,11.37
2018-11-02T00:25:32.512Z,11.42
2018-11-02T00:27:59.701Z,11.40
2018-11-02T00:30:27.418Z,11.37
2018-11-02T00:32:54.860Z,11.41
2018-11-02T00:35:22.134Z,11.36
2018-11-02T00:37:49.947Z,11.43
2018-11-02T00:40:17.351Z,11.42
2018-11-02T00:42:44.884Z,11.44
2018-11-02T00:45:12.426Z,11.46
2018-11-02T00:47:39.991Z,11.46
2018-11-02T00:50:08.831Z,11.39
2018-11-02T00:52:36.485Z,11.43
2018-11-02T00:55:04.095Z,11.41
2018-11-02T00:57:31.296Z,11.40
2018-11-02T00:59:58.560Z,11.41
2018-11-02T01:02:26.843Z,11.43
2018-11-02T01:04:54.338Z,11.51
2018-11-02T01:07:21.689Z,11.50
2018-11-02T01:09:48.988Z,11.44
2018-11-02T01:12:16.327Z,11.44
2018-11-02T01:14:43.754Z,11.44
2018-11-02T01:17:11.110Z,11.49
2018-11-02T01:19:38.477Z,11.48
2018-11-02T01:22:06.051Z,11.39
2018-11-02T01:24:33.429Z,11.44
2018-11-02T01:27:00.763Z,11.55
2018-11-02T01:29:28.720Z,11.44
2018-11-02T01:31:56.645Z,11.37
2018-11-02T01:34:24.045Z,11.36
2018-11-02T01:36:51.373Z,11.33
2018-11-02T01:39:18.760Z,11.34
2018-11-02T01:41:45.913Z,11.33
2018-11-02T01:44:13.390Z,10.74
2018-11-02T01:46:40.721Z,11.25
2018-11-02T01:49:08.314Z,11.22
2018-11-02T01:51:35.759Z,11.20
2018-11-02T01:54:03.157Z,11.19
2018-11-02T01:56:30.621Z,11.10
2018-11-02T01:58:58.009Z,11.03
2018-11-02T02:01:25.385Z,10.97
2018-11-02T02:03:53.303Z,10.95
2018-11-02T02:06:20.690Z,11.00
2018-11-02T02:08:48.052Z,10.95
2018-11-02T02:11:16.402Z,10.93
2018-11-02T02:13:43.641Z,10.88
2018-11-02T02:16:11.074Z,10.91
2018-11-02T02:18:38.573Z,10.87
2018-11-02T02:21:06.709Z,10.83
2018-11-02T02:23:33.958Z,10.77
2018-11-02T02:26:01.364Z,10.68
2018-11-02T02:28:28.689Z,10.60
2018-11-02T02:30:56.648Z,10.59
2018-11-02T02:33:24.030Z,10.57
2018-11-02T02:35:51.320Z,10.54
2018-11-02T02:38:19.615Z,10.57
2018-11-02T02:40:47.214Z,10.58
2018-11-02T02:43:14.522Z,10.62
2018-11-02T02:45:42.027Z,10.62
2018-11-02T02:48:09.532Z,10.56
2018-11-02T02:50:37.593Z,10.52
2018-11-02T02:53:04.957Z,10.51
2018-11-02T02:55:32.300Z,10.48
2018-11-02T02:57:59.618Z,10.48
2018-11-02T03:00:27.029Z,10.36
2018-11-02T03:02:54.385Z,10.26
2018-11-02T03:05:21.780Z,10.24
2018-11-02T03:07:49.182Z,10.22
2018-11-02T03:10:16.439Z,10.22
2018-11-02T03:12:43.899Z,10.21
2018-11-02T03:15:11.234Z,10.15
2018-11-02T03:17:38.477Z,10.04
2018-11-02T03:20:07.028Z,9.96
2018-11-02T03:22:34.451Z,9.93
2018-11-02T03:25:01.626Z,9.91
2018-11-02T03:27:29.304Z,9.93
2018-11-02T03:29:56.594Z,9.92
2018-11-02T03:32:23.952Z,9.93
2018-11-02T03:34:51.218Z,9.93
2018-11-02T03:37:18.970Z,9.90
2018-11-02T03:39:46.541Z,9.91
2018-11-02T03:42:14.196Z,9.92
2018-11-02T03:44:42.569Z,9.89
2018-11-02T03:47:10.226Z,9.96
2018-11-02T03:49:38.716Z,10.04
2018-11-02T03:52:06.132Z,10.04
2018-11-02T03:54:33.416Z,9.96
2018-11-02T03:57:00.747Z,9.94
2018-11-02T03:59:27.874Z,9.88
2018-11-02T04:01:55.424Z,9.81
2018-11-02T04:04:22.786Z,9.81
2018-11-02T04:06:50.053Z,9.84
2018-11-02T04:09:17.299Z,9.82
2018-11-02T04:11:44.699Z,9.85
2018-11-02T04:14:12.103Z,9.86
2018-11-02T04:16:39.408Z,9.66
2018-11-02T04:19:06.860Z,9.93
2018-11-02T04:21:44.064Z,9.80
2018-11-02T04:24:12.489Z,9.72
2018-11-02T04:26:43.934Z,9.68
2018-11-02T04:29:12.577Z,9.67
2018-11-02T04:31:41.318Z,9.70
2018-11-02T04:34:10.106Z,9.72
2018-11-02T04:36:37.390Z,9.71
2018-11-02T04:39:07.121Z,9.64
2018-11-02T04:41:35.039Z,9.63
2018-11-02T04:44:02.381Z,9.61
2018-11-02T04:46:29.699Z,9.61
2018-11-02T04:48:57.103Z,9.62
2018-11-02T04:51:24.934Z,9.60
2018-11-02T04:53:54.254Z,9.59
2018-11-02T04:56:22.081Z,9.59
2018-11-02T04:58:49.710Z,9.55
2018-11-02T05:01:17.088Z,9.53
2018-11-02T05:03:44.447Z,9.50
2018-11-02T05:06:11.793Z,9.49
2018-11-02T05:08:39.249Z,9.49
2018-11-02T05:11:06.798Z,9.48
2018-11-02T05:13:34.058Z,9.46
2018-11-02T05:16:01.409Z,9.43
2018-11-02T05:18:28.882Z,9.35
2018-11-02T05:20:56.236Z,9.29
2018-11-02T05:23:23.684Z,9.18
2018-11-02T05:25:50.932Z,9.16
2018-11-02T05:28:18.194Z,9.14
2018-11-02T05:30:45.576Z,9.12
2018-11-02T05:33:12.906Z,9.03
2018-11-02T05:35:40.187Z,8.95
2018-11-02T05:38:08.284Z,8.95
2018-11-02T05:40:36.292Z,8.90
2018-11-02T05:43:03.506Z,8.84
2018-11-02T05:45:30.775Z,8.87
2018-11-02T05:47:58.166Z,8.89
2018-11-02T05:50:25.410Z,8.91
2018-11-02T05:52:52.736Z,8.88
2018-11-02T05:55:20.019Z,8.90
2018-11-02T05:57:47.273Z,8.83
2018-11-02T06:00:15.182Z,8.86
2018-11-02T06:02:42.481Z,8.85
2018-11-02T06:05:09.805Z,8.88
2018-11-02T06:07:37.539Z,8.87
2018-11-02T06:10:04.906Z,8.85
2018-11-02T06:12:32.233Z,8.81
2018-11-02T06:14:59.560Z,8.56
2018-11-02T06:17:26.833Z,8.64
2018-11-02T06:19:54.063Z,8.58
2018-11-02T06:22:21.439Z,8.57
2018-11-02T06:24:48.805Z,8.54
2018-11-02T06:27:16.846Z,8.45
2018-11-02T06:29:44.916Z,8.49
2018-11-02T06:32:12.578Z,8.53
2018-11-02T06:34:39.851Z,8.53
2018-11-02T06:37:07.119Z,8.47
2018-11-02T06:39:34.797Z,8.38
2018-11-02T06:42:02.105Z,8.37
2018-11-02T06:44:29.692Z,8.34
2018-11-02T06:46:57.088Z,8.32
2018-11-02T06:49:24.584Z,8.27
2018-11-02T06:51:52.351Z,8.24
2018-11-02T06:54:19.702Z,8.27
2018-11-02T06:56:47.182Z,8.27
2018-11-02T06:59:15.014Z,8.20
2018-11-02T07:01:42.731Z,8.15
2018-11-02T07:04:09.932Z,8.11
2018-11-02T07:06:37.243Z,8.14
2018-11-02T07:09:07.439Z,8.18
2018-11-02T07:11:34.757Z,8.15
2018-11-02T07:14:02.195Z,8.17
2018-11-02T07:16:29.433Z,8.18
2018-11-02T07:18:56.861Z,8.19
2018-11-02T07:21:24.306Z,8.16
2018-11-02T07:23:53.227Z,8.19
2018-11-02T07:26:21.090Z,8.25
2018-11-02T07:28:49.418Z,8.23
2018-11-02T07:31:16.845Z,8.26
2018-11-02T07:33:44.435Z,8.33
2018-11-02T07:36:11.828Z,8.38
2018-11-02T07:38:39.223Z,8.42
2018-11-02T07:41:06.650Z,8.47
2018-11-02T07:43:34.466Z,8.53
2018-11-02T07:46:02.702Z,8.58
2018-11-02T07:48:30.366Z,8.65
2018-11-02T07:50:57.857Z,8.68
2018-11-02T07:53:25.134Z,8.71
2018-11-02T07:55:52.360Z,8.84
2018-11-02T07:58:20.290Z,8.98
2018-11-02T08:00:47.816Z,9.08
2018-11-02T08:03:15.220Z,9.05
2018-11-02T08:05:42.602Z,9.11
2018-11-02T08:08:09.955Z,9.21
2018-11-02T08:10:37.278Z,9.28
2018-11-02T08:13:04.673Z,9.37
2018-11-02T08:15:32.019Z,9.49
2018-11-02T08:17:59.431Z,9.62
2018-11-02T08:20:26.932Z,9.67
2018-11-02T08:22:54.195Z,9.72
2018-11-02T08:25:21.638Z,9.84
2018-11-02T08:27:49.415Z,9.91
2018-11-02T08:30:17.004Z,10.02
2018-11-02T08:32:44.285Z,10.11
2018-11-02T08:35:12.620Z,10.21
2018-11-02T08:37:40.330Z,10.32
2018-11-02T08:40:09.522Z,10.29
2018-11-02T08:42:37.690Z,10.33
2018-11-02T08:45:05.938Z,10.47
2018-11-02T08:47:33.492Z,10.63
2018-11-02T08:50:01.262Z,10.73
2018-11-02T08:52:28.874Z,10.85
2018-11-02T08:54:56.308Z,10.92
2018-11-02T08:57:23.782Z,11.02
2018-11-02T08:59:52.020Z,11.12
2018-11-02T09:02:19.370Z,11.19
2018-11-02T09:04:46.805Z,11.33
2018-11-02T09:07:14.483Z,11.40
2018-11-02T09:09:41.873Z,11.46
2018-11-02T09:12:09.216Z,11.52
2018-11-02T09:14:36.651Z,11.55
2018-11-02T09:17:05.649Z,11.55
2018-11-02T09:19:34.193Z,11.56
2018-11-02T09:22:01.647Z,11.64
2018-11-02T09:24:29.222Z,11.66
2018-11-02T09:26:56.525Z,11.77
2018-11-02T09:29:23.988Z,11.80
2018-11-02T09:31:52.791Z,11.84
2018-11-02T09:34:20.454Z,11.66
2018-11-02T09:36:47.693Z,11.92
2018-11-02T09:39:15.095Z,12.00
2018-11-02T09:41:42.443Z,12.07
2018-11-02T09:44:10.007Z,12.10
2018-11-02T09:46:37.663Z,12.12
2018-11-02T09:49:05.224Z,12.17
2018-11-02T09:51:32.942Z,12.22
2018-11-02T09:54:00.298Z,12.29
2018-11-02T09:56:27.611Z,12.33
2018-11-02T09:58:54.915Z,12.40
2018-11-02T10:01:22.635Z,12.42
2018-11-02T10:03:50.286Z,12.35
2018-11-02T10:06:17.721Z,12.47
2018-11-02T10:08:45.920Z,12.50
2018-11-02T10:11:13.788Z,12.55
2018-11-02T10:13:41.078Z,12.66
2018-11-02T10:16:08.842Z,12.66
2018-11-02T10:18:36.372Z,12.68
2018-11-02T10:21:03.913Z,12.72
2018-11-02T10:23:31.457Z,12.79
2018-11-02T10:25:59.019Z,12.84
2018-11-02T10:28:27.194Z,12.92
2018-11-02T10:30:54.859Z,12.93
2018-11-02T10:33:22.444Z,13.01
2018-11-02T10:35:50.646Z,13.08
2018-11-02T10:38:18.236Z,13.22
2018-11-02T10:40:51.138Z,13.34
2018-11-02T10:43:19.404Z,13.16
2018-11-02T10:45:47.895Z,13.30
2018-11-02T10:48:15.357Z,13.30
2018-11-02T10:50:42.708Z,13.16
2018-11-02T10:53:10.037Z,13.09
2018-11-02T10:55:37.385Z,13.10
2018-11-02T10:58:05.109Z,13.05
2018-11-02T11:00:38.240Z,12.90
2018-11-02T11:03:05.727Z,12.92
2018-11-02T11:05:34.324Z,12.78
2018-11-02T11:08:01.558Z,12.72
2018-11-02T11:10:29.041Z,12.69
2018-11-02T11:12:56.706Z,12.73
2018-11-02T11:15:23.895Z,12.74
2018-11-02T11:17:52.203Z,12.68
2018-11-02T11:20:19.971Z,12.63
2018-11-02T11:22:47.426Z,12.67
2018-11-02T11:25:15.285Z,12.72
2018-11-02T11:27:42.747Z,12.78
2018-11-02T11:30:16.256Z,12.88
2018-11-02T11:32:43.720Z,12.98
2018-11-02T11:35:13.034Z,13.13
2018-11-02T11:37:40.872Z,13.36
2018-11-02T11:40:10.473Z,13.51
2018-11-02T11:42:38.154Z,13.68
2018-11-02T11:45:07.025Z,13.76
2018-11-02T11:47:34.450Z,13.73
2018-11-02T11:50:02.055Z,13.52
2018-11-02T11:52:29.354Z,13.29
2018-11-02T11:54:56.728Z,13.30
2018-11-02T11:57:24.030Z,13.31
2018-11-02T11:59:51.317Z,13.30
2018-11-02T12:02:18.967Z,13.26
2018-11-02T12:04:46.462Z,13.27
2018-11-02T12:07:14.667Z,13.30
2018-11-02T12:09:42.134Z,13.35
2018-11-02T12:12:09.457Z,13.42
2018-11-02T12:14:36.732Z,13.49
2018-11-02T12:17:04.207Z,13.62
2018-11-02T12:19:31.594Z,13.63
2018-11-02T12:21:59.236Z,13.68
2018-11-02T12:24:27.002Z,13.64
2018-11-02T12:26:54.699Z,13.26
2018-11-02T12:29:22.181Z,13.46
2018-11-02T12:31:49.766Z,13.39
2018-11-02T12:34:17.081Z,13.40
2018-11-02T12:36:44.652Z,13.48
2018-11-02T12:39:12.187Z,12.27
2018-11-02T12:41:40.392Z,13.62
2018-11-02T12:44:08.689Z,13.71
2018-11-02T12:46:36.334Z,13.67
2018-11-02T12:54:04.122Z,13.51
2018-11-02T12:56:31.439Z,13.83
2018-11-02T12:58:58.838Z,14.14
2018-11-02T13:01:26.137Z,14.31
2018-11-02T13:03:54.504Z,14.46
2018-11-02T13:06:21.925Z,14.76
2018-11-02T13:08:49.388Z,14.95
2018-11-02T13:11:16.857Z,14.97
2018-11-02T13:13:44.160Z,14.92
2018-11-02T13:16:11.569Z,14.80
2018-11-02T13:18:38.915Z,14.98
2018-11-02T13:21:06.209Z,14.95
2018-11-02T13:23:33.579Z,14.93
2018-11-02T13:26:01.459Z,14.77
2018-11-02T13:28:28.586Z,14.85
2018-11-02T13:30:56.174Z,14.89
2018-11-02T13:33:23.555Z,15.00
2018-11-02T13:35:51.907Z,15.12
2018-11-02T13:38:19.592Z,15.05
2018-11-02T13:40:46.853Z,15.06
2018-11-02T13:43:14.536Z,14.80
2018-11-02T13:45:45.273Z,14.64
2018-11-02T13:48:13.500Z,14.30
2018-11-02T13:50:41.063Z,14.12
2018-11-02T13:53:08.557Z,14.08
2018-11-02T13:55:36.334Z,13.90
2018-11-02T13:58:05.381Z,12.71
2018-11-02T14:00:33.109Z,14.05
2018-11-02T14:03:01.025Z,14.00
2018-11-02T14:05:28.699Z,13.99
2018-11-02T14:07:57.282Z,13.91
2018-11-02T14:10:24.439Z,13.95
2018-11-02T14:12:51.972Z,13.93
2018-11-02T14:15:19.473Z,13.86
2018-11-02T14:17:46.873Z,13.75
2018-11-02T14:20:14.512Z,13.75
2018-11-02T14:22:41.853Z,13.86
2018-11-02T14:25:11.631Z,13.77
2018-11-02T14:27:39.748Z,13.71
2018-11-02T14:30:09.110Z,12.80
2018-11-02T14:32:36.636Z,13.55
2018-11-02T14:35:04.164Z,13.43
2018-11-02T14:37:31.657Z,13.42
2018-11-02T14:39:59.223Z,13.53
2018-11-02T14:42:26.575Z,13.50
2018-11-02T14:44:54.088Z,13.46
2018-11-02T14:47:21.816Z,13.46
2018-11-02T14:49:49.937Z,13.46
2018-11-02T14:52:17.341Z,13.44
2018-11-02T14:54:44.647Z,13.43
2018-11-02T14:58:29.247Z,13.40
2018-11-02T15:00:57.717Z,13.39
2018-11-02T15:03:26.305Z,13.38
2018-11-02T15:05:54.075Z,13.38
2018-11-02T15:08:23.523Z,13.39
2018-11-02T15:11:09.409Z,13.39
2018-11-02T15:13:36.634Z,13.35
2018-11-02T15:16:04.816Z,13.34
2018-11-02T15:18:32.249Z,13.35
2018-11-02T15:21:00.011Z,13.38
2018-11-02T15:23:27.567Z,13.41
2018-11-02T15:25:54.924Z,13.39
2018-11-02T15:28:22.242Z,13.45
2018-11-02T15:30:49.678Z,13.51
2018-11-02T15:33:17.978Z,13.57
2018-11-02T15:35:45.231Z,13.60
2018-11-02T15:38:12.635Z,13.61
2018-11-02T15:40:41.576Z,13.59
2018-11-02T15:43:09.170Z,13.55
2018-11-02T15:45:36.833Z,13.31
2018-11-02T15:48:04.422Z,13.56
2018-11-02T15:50:32.000Z,13.59
2018-11-02T15:52:59.899Z,13.57
2018-11-02T15:55:27.432Z,13.56
2018-11-02T15:57:54.937Z,13.56
2018-11-02T16:00:22.520Z,13.58
2018-11-02T16:02:51.137Z,13.56
2018-11-02T16:05:18.557Z,13.57
2018-11-02T16:07:45.942Z,13.56
2018-11-02T16:10:13.590Z,13.53
2018-11-02T16:12:41.719Z,13.53
2018-11-02T16:15:09.703Z,13.47
2018-11-02T16:17:37.450Z,13.41
2018-11-02T16:20:06.664Z,13.37
2018-11-02T16:22:34.003Z,13.37
2018-11-02T16:25:01.372Z,13.32
2018-11-02T16:27:29.046Z,13.30
2018-11-02T16:29:56.777Z,13.33
2018-11-02T16:32:29.982Z,13.32
2018-11-02T16:34:58.479Z,13.25
2018-11-02T16:37:26.486Z,13.20
2018-11-02T16:39:53.770Z,13.16
2018-11-02T16:42:21.039Z,13.13
2018-11-02T16:44:48.554Z,12.94
2018-11-02T16:47:15.975Z,12.54
2018-11-02T16:49:44.022Z,12.35
2018-11-02T16:52:11.326Z,12.21
2018-11-02T16:54:38.718Z,12.15
2018-11-02T16:57:06.298Z,12.12
2018-11-02T16:59:33.764Z,12.13
2018-11-02T17:02:03.045Z,12.22
2018-11-02T17:04:30.836Z,12.30
2018-11-02T17:06:58.271Z,12.31
2018-11-02T17:09:25.741Z,12.27
2018-11-02T17:11:53.254Z,12.26
2018-11-02T17:14:20.759Z,12.19
2018-11-02T17:16:48.736Z,12.09
2018-11-02T17:19:16.631Z,11.99
2018-11-02T17:21:44.274Z,11.94
2018-11-02T17:24:11.501Z,12.00
2018-11-02T17:26:38.918Z,12.02
2018-11-02T17:29:07.433Z,12.00
2018-11-02T17:31:35.049Z,11.95
2018-11-02T17:36:41.471Z,12.07
2018-11-02T17:39:11.554Z,12.11
2018-11-02T17:41:42.263Z,12.15
2018-11-02T17:44:09.952Z,12.21
2018-11-02T17:46:37.550Z,12.12
2018-11-02T17:49:04.903Z,12.04
2018-11-02T17:51:32.278Z,11.97
2018-11-02T17:53:59.621Z,11.95
2018-11-02T17:56:26.931Z,11.87
2018-11-02T17:58:54.321Z,11.77
2018-11-02T18:01:22.761Z,11.75
2018-11-02T18:03:50.107Z,11.80
2018-11-02T18:06:17.541Z,11.80
2018-11-02T18:08:45.431Z,10.76
2018-11-02T18:11:13.036Z,11.66
2018-11-02T18:13:40.391Z,11.72
2018-11-02T18:16:08.837Z,10.83
2018-11-02T18:18:36.309Z,11.85
2018-11-02T18:21:03.469Z,11.80
2018-11-02T18:23:30.786Z,11.77
2018-11-02T18:25:58.465Z,11.58
2018-11-02T18:28:25.890Z,11.52
2018-11-02T18:30:53.443Z,11.62
2018-11-02T18:33:20.782Z,11.72
2018-11-02T18:35:48.196Z,11.73
2018-11-02T18:38:16.722Z,11.72
2018-11-02T18:40:43.969Z,11.74
2018-11-02T18:43:11.221Z,11.74
2018-11-02T18:45:38.627Z,11.74
2018-11-02T18:48:06.079Z,11.74
2018-11-02T18:50:33.430Z,11.66
2018-11-02T18:53:00.909Z,11.63
2018-11-02T18:55:28.242Z,11.55
2018-11-02T18:57:55.792Z,11.50
2018-11-02T19:00:22.997Z,11.48
2018-11-02T19:02:50.364Z,11.45
2018-11-02T19:05:18.536Z,11.46
2018-11-02T19:07:45.987Z,11.40
2018-11-02T19:10:13.631Z,11.21
2018-11-02T19:12:41.502Z,11.21
2018-11-02T19:15:12.762Z,11.19
2018-11-02T19:17:40.771Z,11.12
2018-11-02T19:20:09.065Z,11.17
2018-11-02T19:22:36.468Z,11.20
2018-11-02T19:25:04.531Z,11.19
2018-11-02T19:27:32.235Z,11.24
2018-11-02T19:29:59.615Z,11.24
2018-11-02T19:32:27.217Z,11.32
2018-11-02T19:34:54.829Z,11.25
2018-11-02T19:37:22.035Z,11.22
2018-11-02T19:39:49.400Z,11.19
2018-11-02T19:42:16.846Z,11.19
2018-11-02T19:44:44.489Z,11.18
2018-11-02T19:47:12.085Z,11.20
2018-11-02T19:49:40.506Z,11.17
2018-11-02T19:52:07.889Z,11.15
2018-11-02T19:54:35.685Z,11.18
2018-11-02T19:57:03.267Z,10.20
2018-11-02T19:59:31.099Z,11.14
2018-11-02T20:01:58.543Z,11.10
2018-11-02T20:04:27.440Z,11.05
2018-11-02T20:06:55.605Z,10.99
2018-11-02T20:09:23.042Z,10.96
2018-11-02T20:12:03.192Z,10.91
2018-11-02T20:14:31.089Z,10.93
2018-11-02T20:16:59.267Z,11.01
2018-11-02T20:19:28.356Z,11.02
2018-11-02T20:21:56.125Z,10.94
2018-11-02T20:24:23.476Z,10.88
2018-11-02T20:26:50.774Z,10.87
2018-11-02T20:29:18.102Z,10.77
2018-11-02T20:31:45.646Z,10.57
2018-11-02T20:34:13.832Z,10.45
2018-11-02T20:36:41.183Z,10.40
2018-11-02T20:39:10.230Z,10.37
2018-11-02T20:41:37.673Z,10.39
2018-11-02T20:44:05.379Z,9.92
2018-11-02T20:46:33.250Z,10.43
2018-11-02T20:49:00.687Z,10.46
2018-11-02T20:51:28.069Z,10.44
2018-11-02T20:53:55.782Z,10.50
2018-11-02T20:56:23.198Z,10.51
2018-11-02T20:58:50.845Z,10.48
2018-11-02T21:01:18.404Z,10.42
2018-11-02T21:03:45.750Z,10.42
2018-11-02T21:06:13.239Z,10.46
2018-11-02T21:08:40.622Z,10.40
2018-11-02T21:11:10.594Z,10.31
2018-11-02T21:13:38.352Z,10.25
2018-11-02T21:16:06.531Z,10.19
2018-11-02T21:18:34.070Z,10.14
2018-11-02T21:21:01.419Z,10.19
2018-11-02T21:23:29.655Z,10.15
2018-11-02T21:25:58.703Z,10.18
2018-11-02T21:28:26.077Z,10.07
2018-11-02T21:30:54.564Z,10.11
2018-11-02T21:33:22.702Z,10.09
2018-11-02T21:35:50.374Z,10.09
2018-11-02T21:38:17.888Z,10.07
2018-11-02T21:40:45.172Z,10.14
2018-11-02T21:43:14.177Z,10.23
2018-11-02T21:45:41.537Z,10.14
2018-11-02T21:48:09.593Z,10.03
2018-11-02T21:50:37.562Z,10.07
2018-11-02T21:53:05.032Z,10.06
2018-11-02T21:55:32.374Z,9.94
2018-11-02T21:57:59.932Z,9.87
2018-11-02T22:00:27.879Z,9.82
2018-11-02T22:02:55.226Z,9.87
2018-11-02T22:05:22.688Z,9.80
2018-11-02T22:07:50.434Z,9.83
2018-11-02T22:10:18.053Z,9.83
2018-11-02T22:12:45.773Z,9.73
2018-11-02T22:15:13.144Z,9.60
2018-11-02T22:17:41.045Z,9.53
2018-11-02T22:20:10.242Z,9.53
2018-11-02T22:22:38.935Z,9.52
2018-11-02T22:25:07.612Z,9.49
2018-11-02T22:27:35.037Z,9.45
2018-11-02T22:30:02.534Z,9.33
2018-11-02T22:32:30.251Z,9.30
2018-11-02T22:34:57.498Z,9.34
2018-11-02T22:37:25.057Z,9.25
2018-11-02T22:39:52.497Z,9.32
2018-11-02T22:42:19.891Z,9.25
2018-11-02T22:44:47.267Z,9.20
2018-11-02T22:47:15.010Z,9.15
2018-11-02T22:49:42.625Z,9.12
2018-11-02T22:52:10.178Z,9.07
2018-11-02T22:54:37.607Z,9.09
2018-11-02T22:57:05.075Z,9.09
2018-11-02T22:59:32.398Z,9.02
2018-11-02T23:01:59.758Z,8.96
2018-11-02T23:04:27.003Z,8.93
2018-11-02T23:06:54.564Z,8.92
2018-11-02T23:09:21.891Z,8.84
2018-11-02T23:11:49.305Z,8.70
2018-11-02T23:14:16.610Z,8.68
2018-11-02T23:16:43.882Z,8.73
2018-11-02T23:19:11.148Z,8.77
2018-11-02T23:21:38.403Z,8.75
2018-11-02T23:24:05.957Z,8.69
2018-11-02T23:26:36.019Z,8.66
2018-11-02T23:29:03.656Z,8.56
2018-11-02T23:31:30.874Z,8.28
2018-11-02T23:33:58.170Z,8.24
2018-11-02T23:36:25.481Z,8.24
2018-11-02T23:38:52.729Z,8.20
2018-11-02T23:41:20.131Z,8.12
2018-11-02T23:43:47.575Z,8.04
2018-11-02T23:46:14.925Z,8.01
2018-11-02T23:48:42.477Z,7.96
2018-11-02T23:51:09.820Z,8.01
2018-11-02T23:53:37.429Z,8.13
2018-11-02T23:56:04.878Z,8.07
2018-11-02T23:58:32.144Z,7.99
